Terminal Aerodrome Forecast
Issued by NWS Jackson, KY

Home | Current Version | Previous Version | Text Only | Print | Product List | Glossary On
Versions: 1 2 3 4 5 6 7 8 9 10 11 12 13 14 15 16 17 18 19 20 21 22
546
FTUS43 KJKL 302330
TAFJKL
TAF
KJKL 302330Z 0100/0124 VRB05KT 6SM BR VCSH SCT003 BKN080
     FM010100 VRB03KT 5SM -SHRA BR SCT005 OVC050
     FM010600 VRB03KT 3SM -SHRA VCTS OVC025CB
     FM011000 VRB03KT 3SM -SHRA OVC025
     FM011300 VRB03KT P6SM VCTS BKN045CB=

USA.gov is the U.S. government's official web portal to all federal, state and local government web resources and services.